createdAt,value
2022-12-14T00:00:17.039Z,-12.633333
2022-12-14T00:05:16.510Z,-12.530093
2022-12-14T00:10:17.008Z,-12.430556
2022-12-14T00:15:17.078Z,-12.328889
2022-12-14T00:20:16.647Z,-12.236111
2022-12-14T00:25:16.556Z,-12.146667
2022-12-14T00:30:16.757Z,-12.043981
2022-12-14T00:35:17.571Z,-11.951111
2022-12-14T00:40:16.547Z,-11.862222
2022-12-14T00:45:16.444Z,-11.798611
2022-12-14T00:50:16.549Z,-11.724444
2022-12-14T00:55:16.517Z,-11.653333
2022-12-14T01:00:16.521Z,-11.590278
2022-12-14T01:05:16.449Z,-11.532407
2022-12-14T01:10:16.709Z,-11.458333
2022-12-14T01:15:16.848Z,-11.418981
2022-12-14T01:20:16.515Z,-11.361111
2022-12-14T01:25:16.409Z,-11.311111
2022-12-14T01:30:16.434Z,-11.277778
2022-12-14T01:35:16.415Z,-11.240741
2022-12-14T01:40:16.472Z,-11.197778
2022-12-14T01:45:16.409Z,-11.171296
2022-12-14T01:50:16.451Z,-11.166667
2022-12-14T01:55:16.499Z,-11.166667
2022-12-14T02:00:16.339Z,-11.166667
2022-12-14T02:05:16.424Z,-11.180556
2022-12-14T02:10:16.431Z,-11.228889
2022-12-14T02:15:16.627Z,-11.270833
2022-12-14T02:20:16.490Z,-11.321759
2022-12-14T02:25:16.412Z,-11.377315
2022-12-14T02:30:16.480Z,-11.442130
2022-12-14T02:35:16.448Z,-11.493056
2022-12-14T02:40:16.635Z,-11.546296
2022-12-14T02:45:16.707Z,-11.568889
2022-12-14T02:50:16.785Z,-11.597778
2022-12-14T02:55:16.465Z,-11.597222
2022-12-14T03:00:16.542Z,-11.562222
2022-12-14T03:05:16.552Z,-11.542222
2022-12-14T03:10:16.446Z,-11.497685
2022-12-14T03:15:16.469Z,-11.451389
2022-12-14T03:20:16.371Z,-11.421296
2022-12-14T03:25:16.521Z,-11.356481
2022-12-14T03:30:23.756Z,-11.293981
2022-12-14T03:35:16.460Z,-11.251111
2022-12-14T03:40:16.596Z,-11.175926
2022-12-14T03:45:16.405Z,-11.135556
2022-12-14T03:50:16.417Z,-11.055556
2022-12-14T03:55:16.545Z,-10.984444
2022-12-14T04:00:16.654Z,-10.918981
2022-12-14T04:05:16.549Z,-10.849537
2022-12-14T04:10:16.504Z,-10.761574
2022-12-14T04:15:16.463Z,-10.694444
2022-12-14T04:20:16.501Z,-10.601852
2022-12-14T04:25:16.394Z,-10.534722
2022-12-14T04:30:16.491Z,-10.457778
2022-12-14T04:35:16.448Z,-10.393519
2022-12-14T04:40:16.622Z,-10.306667
2022-12-14T04:45:16.615Z,-10.268519
2022-12-14T04:50:16.323Z,-10.192130
2022-12-14T04:55:16.505Z,-10.131944
2022-12-14T05:00:16.647Z,-10.092593
2022-12-14T05:05:16.384Z,-10.060185
2022-12-14T05:10:16.361Z,-10.032407
2022-12-14T05:15:16.362Z,-10.000000
2022-12-14T05:20:16.633Z,-9.976852
2022-12-14T05:25:16.743Z,-9.942130
2022-12-14T05:30:16.541Z,-9.916667
2022-12-14T05:35:16.651Z,-9.895556
2022-12-14T05:40:16.705Z,-9.913333
2022-12-14T05:45:16.887Z,-9.939815
2022-12-14T05:50:16.658Z,-9.982222
2022-12-14T05:55:16.408Z,-10.006944
2022-12-14T06:00:16.431Z,-10.053333
2022-12-14T06:05:16.351Z,-10.078704
2022-12-14T06:10:16.349Z,-10.106481
2022-12-14T06:15:16.365Z,-10.113426
2022-12-14T06:20:16.826Z,-10.122222
2022-12-14T06:25:16.406Z,-10.126667
2022-12-14T06:30:16.393Z,-10.115741
2022-12-14T06:35:16.365Z,-10.111111
2022-12-14T06:40:16.505Z,-10.081019
2022-12-14T06:45:16.361Z,-10.055556
2022-12-14T06:50:16.345Z,-10.030093
2022-12-14T06:55:16.385Z,-9.997685
2022-12-14T07:00:16.276Z,-9.953333
2022-12-14T07:05:16.345Z,-9.944444
2022-12-14T07:10:16.439Z,-9.953333
2022-12-14T07:15:16.587Z,-9.976852
2022-12-14T07:20:16.403Z,-10.011574
2022-12-14T07:25:16.532Z,-10.050926
2022-12-14T07:30:16.395Z,-10.080000
2022-12-14T07:35:16.907Z,-10.106481
2022-12-14T07:40:16.412Z,-10.069444
2022-12-14T07:45:16.291Z,-10.004444
2022-12-14T07:50:16.386Z,-9.923611
2022-12-14T07:55:16.432Z,-9.807870
2022-12-14T08:00:16.296Z,-9.668981
2022-12-14T08:05:16.455Z,-9.525463
2022-12-14T08:10:16.322Z,-9.303241
2022-12-14T08:15:16.513Z,-9.185185
2022-12-14T08:20:16.588Z,-9.060000
2022-12-14T08:25:16.485Z,-8.914352
2022-12-14T08:30:16.336Z,-8.764444
2022-12-14T08:35:16.581Z,-8.408889
2022-12-14T08:40:16.776Z,-7.813333
2022-12-14T08:45:16.541Z,-7.652778
2022-12-14T08:50:16.650Z,-7.537037
2022-12-14T08:55:16.288Z,-7.543981
2022-12-14T09:00:16.284Z,-7.400000
2022-12-14T09:05:16.452Z,-6.715556
2022-12-14T09:10:16.355Z,-5.951389
2022-12-14T09:15:16.290Z,-5.925926
2022-12-14T09:20:16.460Z,-6.057870
2022-12-14T09:25:16.405Z,-6.090278
2022-12-14T09:30:19.324Z,-6.101852
2022-12-14T09:35:16.617Z,-6.016204
2022-12-14T09:40:19.029Z,-5.420000
2022-12-14T09:45:18.699Z,-4.793981
2022-12-14T09:50:16.594Z,-4.453704
2022-12-14T09:55:16.769Z,-4.511574
2022-12-14T10:00:16.775Z,-4.414352
2022-12-14T10:05:18.153Z,-4.148148
2022-12-14T10:10:18.010Z,-3.907407
2022-12-14T10:15:19.334Z,-3.752315
2022-12-14T10:20:16.395Z,-3.634259
2022-12-14T10:25:16.354Z,-3.500000
2022-12-14T10:30:17.732Z,-3.636574
2022-12-14T10:35:16.407Z,-3.706019
2022-12-14T10:40:26.219Z,-3.613426
2022-12-14T10:45:39.902Z,-3.435185
2022-12-14T10:50:16.353Z,-3.280093
2022-12-14T10:55:16.465Z,-3.261574
2022-12-14T11:00:23.164Z,-3.219907
2022-12-14T11:05:16.669Z,-3.185185
2022-12-14T11:10:16.821Z,-3.085648
2022-12-14T11:15:16.520Z,-3.023148
2022-12-14T11:20:16.334Z,-3.046296
2022-12-14T11:25:16.281Z,-3.037037
2022-12-14T11:30:16.360Z,-3.032407
2022-12-14T11:35:16.239Z,-2.942222
2022-12-14T11:40:16.407Z,-2.897778
2022-12-14T11:45:16.224Z,-2.865741
2022-12-14T11:50:16.272Z,-2.784722
2022-12-14T11:55:19.241Z,-2.678241
2022-12-14T12:00:16.412Z,-2.601852
2022-12-14T12:05:16.328Z,-2.488889
2022-12-14T12:10:16.226Z,-2.344907
2022-12-14T12:15:16.457Z,-2.253333
2022-12-14T12:20:16.385Z,-2.224537
2022-12-14T12:25:26.764Z,-2.266204
2022-12-14T12:30:16.201Z,-2.293333
2022-12-14T12:35:16.595Z,-2.271111
2022-12-14T12:40:16.548Z,-2.231481
2022-12-14T12:45:16.560Z,-2.168981
2022-12-14T12:50:16.902Z,-2.140000
2022-12-14T12:55:16.343Z,-2.108796
2022-12-14T13:00:16.236Z,-2.111111
2022-12-14T13:05:45.120Z,-2.166667
2022-12-14T13:10:16.298Z,-2.171111
2022-12-14T13:15:16.399Z,-2.175556
2022-12-14T13:20:16.189Z,-2.151111
2022-12-14T13:25:16.215Z,-2.164352
2022-12-14T13:30:16.540Z,-2.211111
2022-12-14T13:35:16.230Z,-2.220000
2022-12-14T13:40:16.204Z,-2.222222
2022-12-14T13:45:16.172Z,-2.233333
2022-12-14T13:51:01.030Z,-2.254630
2022-12-14T13:55:16.343Z,-2.275463
2022-12-14T14:00:16.239Z,-2.260000
2022-12-14T14:05:16.304Z,-2.296296
2022-12-14T14:10:16.296Z,-2.335648
2022-12-14T14:15:18.813Z,-2.337963
2022-12-14T14:20:16.272Z,-2.333333
2022-12-14T14:25:16.334Z,-2.331019
2022-12-14T14:30:16.184Z,-2.319444
2022-12-14T14:35:16.343Z,-2.337778
2022-12-14T14:40:25.934Z,-2.342593
2022-12-14T14:45:16.189Z,-2.333333
2022-12-14T14:50:16.648Z,-2.333333
2022-12-14T14:55:50.906Z,-2.333333
2022-12-14T15:00:16.154Z,-2.335648
2022-12-14T15:05:51.352Z,-2.393333
2022-12-14T15:10:22.226Z,-2.425926
2022-12-14T15:15:16.324Z,-2.453704
2022-12-14T15:20:21.347Z,-2.495556
2022-12-14T15:25:16.261Z,-2.537037
2022-12-14T15:30:16.183Z,-2.566667
2022-12-14T15:35:16.381Z,-2.613333
2022-12-14T15:40:16.812Z,-2.662037
2022-12-14T15:45:16.187Z,-2.680556
2022-12-14T15:50:16.184Z,-2.715278
2022-12-14T15:55:16.210Z,-2.733796
2022-12-14T16:00:16.163Z,-2.760000
2022-12-14T16:05:16.333Z,-2.777778
2022-12-14T16:10:16.240Z,-2.777778
2022-12-14T16:15:16.182Z,-2.777778
2022-12-14T16:20:16.186Z,-2.777778
2022-12-14T16:25:16.157Z,-2.777778
2022-12-14T16:30:16.196Z,-2.777778
2022-12-14T16:35:16.225Z,-2.782407
2022-12-14T16:40:16.671Z,-2.805556
2022-12-14T16:45:16.258Z,-2.837963
2022-12-14T16:50:17.879Z,-2.877315
2022-12-14T16:55:16.421Z,-2.937500
2022-12-14T17:00:16.189Z,-3.023148
2022-12-14T17:05:16.272Z,-3.157407
2022-12-14T17:10:16.395Z,-3.246667
2022-12-14T17:15:16.504Z,-3.337963
2022-12-14T17:20:16.695Z,-3.423611
2022-12-14T17:25:16.277Z,-3.506667
2022-12-14T17:30:16.123Z,-3.553333
2022-12-14T17:35:16.194Z,-3.597778
2022-12-14T17:40:16.237Z,-3.615741
2022-12-14T17:45:16.138Z,-3.652778
2022-12-14T17:50:16.153Z,-3.673611
2022-12-14T17:55:16.186Z,-3.717778
2022-12-14T18:00:16.192Z,-3.740741
2022-12-14T18:05:16.372Z,-3.775463
2022-12-14T18:10:16.109Z,-3.784722
2022-12-14T18:15:16.155Z,-3.833333
2022-12-14T18:20:16.237Z,-3.861111
2022-12-14T18:25:16.118Z,-3.916667
2022-12-14T18:30:16.229Z,-3.949074
2022-12-14T18:35:16.163Z,-3.995370
2022-12-14T18:40:16.286Z,-4.078704
2022-12-14T18:45:16.251Z,-4.155556
2022-12-14T18:50:16.712Z,-4.247685
2022-12-14T18:55:16.293Z,-4.340278
2022-12-14T19:00:16.404Z,-4.490741
2022-12-14T19:05:16.302Z,-4.675926
2022-12-14T19:10:16.634Z,-4.912037
2022-12-14T19:15:16.600Z,-5.164352
2022-12-14T19:20:16.456Z,-5.353333
2022-12-14T19:25:16.316Z,-5.527778
2022-12-14T19:30:16.183Z,-5.706019
2022-12-14T19:35:16.188Z,-5.873333
2022-12-14T19:40:16.106Z,-5.973333
2022-12-14T19:45:16.138Z,-6.030093
2022-12-14T19:50:16.179Z,-6.127315
2022-12-14T19:55:16.423Z,-6.226852
2022-12-14T20:00:16.061Z,-6.344907
2022-12-14T20:05:16.181Z,-6.506667
2022-12-14T20:10:16.259Z,-6.694444
2022-12-14T20:15:16.234Z,-6.926667
2022-12-14T20:20:16.072Z,-7.142222
2022-12-14T20:25:16.071Z,-7.331111
2022-12-14T20:30:16.359Z,-7.522222
2022-12-14T20:35:16.172Z,-7.793333
2022-12-14T20:40:16.151Z,-8.037037
2022-12-14T20:45:16.203Z,-8.245370
2022-12-14T20:50:16.293Z,-8.458333
2022-12-14T20:55:16.289Z,-8.675556
2022-12-14T21:00:16.304Z,-8.902778
2022-12-14T21:05:16.112Z,-9.104444
2022-12-14T21:10:16.508Z,-9.319444
2022-12-14T21:15:16.238Z,-9.523148
2022-12-14T21:20:16.672Z,-9.706019
2022-12-14T21:25:16.153Z,-9.891204
2022-12-14T21:30:16.102Z,-10.081019
2022-12-14T21:35:16.218Z,-10.236111
2022-12-14T21:40:16.051Z,-10.377315
2022-12-14T21:45:16.082Z,-10.511574
2022-12-14T21:50:16.259Z,-10.631111
2022-12-14T21:55:16.327Z,-10.762222
2022-12-14T22:00:16.594Z,-10.870370
2022-12-14T22:05:16.434Z,-10.951111
2022-12-14T22:10:21.257Z,-11.009259
2022-12-14T22:15:16.259Z,-11.062222
2022-12-14T22:20:16.142Z,-11.120370
2022-12-14T22:25:16.052Z,-11.162037
2022-12-14T22:30:16.239Z,-11.166667
2022-12-14T22:35:16.055Z,-11.166667
2022-12-14T22:40:16.109Z,-11.160000
2022-12-14T22:45:16.070Z,-11.083333
2022-12-14T22:50:16.049Z,-11.015556
2022-12-14T22:55:16.076Z,-10.969907
2022-12-14T23:00:17.920Z,-10.862222
2022-12-14T23:05:16.169Z,-10.752315
2022-12-14T23:10:16.172Z,-10.708333
2022-12-14T23:15:16.068Z,-10.668981
2022-12-14T23:20:16.178Z,-10.675926
2022-12-14T23:25:16.026Z,-10.724537
2022-12-14T23:30:16.510Z,-10.789352
2022-12-14T23:35:16.661Z,-10.870370
2022-12-14T23:40:16.031Z,-10.977778
2022-12-14T23:45:16.553Z,-11.097222
2022-12-14T23:50:16.442Z,-11.211111
2022-12-14T23:55:16.459Z,-11.315556
